Time;durP1;ratioP1;P1;durP2;ratioP2;P2;SDS_P1;SDS_P2;PMS_P1;PMS_P2;Temp;Humidity;BMP_temperature;BMP_pressure;BME280_temperature;BME280_humidity;BME280_pressure;Samples;Min_cycle;Max_cycle;Signal;HPM_P1;HPM_P2
2021/12/26 00:00:49;;;;;;;50.28;23.40;;;;;;;3.39;nan;94746.75;6095832;23;20399;-80
2021/12/26 00:03:15;;;;;;;41.08;20.70;;;;;;;3.51;nan;94774.75;6068734;23;20037;-79
2021/12/26 00:05:41;;;;;;;40.97;19.75;;;;;;;3.38;nan;94771.38;6093160;23;20008;-80
2021/12/26 00:08:06;;;;;;;50.28;22.48;;;;;;;3.38;nan;94760.91;6095253;23;20007;-79
2021/12/26 00:10:33;;;;;;;40.90;20.98;;;;;;;3.26;nan;94754.16;6095915;23;20006;-80
2021/12/26 00:12:59;;;;;;;41.33;20.98;;;;;;;3.47;nan;94796.16;6095822;23;20017;-80
2021/12/26 00:15:25;;;;;;;42.58;21.60;;;;;;;3.62;nan;94797.44;6096218;23;20010;-79
2021/12/26 00:17:50;;;;;;;45.38;21.98;;;;;;;3.54;nan;94798.63;6094961;23;20074;-79
2021/12/26 00:20:17;;;;;;;41.92;21.98;;;;;;;3.58;nan;94852.19;6069027;23;20011;-81
2021/12/26 00:22:43;;;;;;;47.50;23.55;;;;;;;3.78;nan;94836.78;6123361;23;20042;-79
2021/12/26 00:25:11;;;;;;;49.60;21.88;;;;;;;3.49;nan;94848.38;6122680;23;20068;-80
2021/12/26 00:27:37;;;;;;;45.55;21.85;;;;;;;3.63;nan;94847.03;6122150;23;20502;-80
2021/12/26 00:30:12;;;;;;;44.22;22.50;;;;;;;3.43;nan;94831.75;6122680;23;20493;-79
2021/12/26 00:32:38;;;;;;;42.85;22.25;;;;;;;3.53;nan;94841.63;6098351;23;20010;-79
2021/12/26 00:35:05;;;;;;;45.00;21.90;;;;;;;3.34;nan;94801.75;6123773;23;20016;-80
2021/12/26 00:37:31;;;;;;;44.97;23.02;;;;;;;2.77;nan;94709.31;6098953;23;20018;-79
2021/12/26 00:39:56;;;;;;;49.47;22.02;;;;;;;2.61;nan;94681.28;6124406;23;20016;-79
2021/12/26 00:42:21;;;;;;;43.75;21.60;;;;;;;2.19;nan;94612.78;6097910;23;20050;-80
2021/12/26 00:44:47;;;;;;;42.38;21.58;;;;;;;3.15;nan;94770.72;6123875;23;20052;-79
2021/12/26 00:47:13;;;;;;;46.53;22.35;;;;;;;3.64;nan;94850.44;6099432;23;20017;-80
2021/12/26 00:49:39;;;;;;;42.38;22.38;;;;;;;3.45;nan;94828.91;6122958;23;20013;-79
2021/12/26 00:52:06;;;;;;;43.88;22.30;;;;;;;3.29;nan;94806.06;6125546;23;20010;-78
2021/12/26 00:54:33;;;;;;;58.80;26.42;;;;;;;3.28;nan;94821.00;6125105;23;20068;-78
2021/12/26 00:56:59;;;;;;;96.72;39.30;;;;;;;3.17;nan;94855.16;6098823;23;20014;-80
2021/12/26 00:59:25;;;;;;;84.13;39.95;;;;;;;3.32;nan;94856.22;6124398;23;20299;-80
2021/12/26 01:01:52;;;;;;;91.43;41.58;;;;;;;3.33;nan;94855.19;6124734;23;20021;-79
2021/12/26 01:04:18;;;;;;;92.50;43.05;;;;;;;2.97;nan;94809.22;6124347;23;20006;-79
2021/12/26 01:06:44;;;;;;;109.30;48.25;;;;;;;2.83;nan;94771.22;6097685;23;20065;-80
2021/12/26 01:09:13;;;;;;;123.50;52.97;;;;;;;2.77;nan;94794.94;6124213;23;20017;-80
2021/12/26 01:11:43;;;;;;;122.35;50.80;;;;;;;3.05;nan;94821.16;6124739;23;20140;-80
2021/12/26 01:14:12;;;;;;;116.25;50.83;;;;;;;3.25;nan;94842.47;6124397;23;20010;-79
2021/12/26 01:16:39;;;;;;;130.65;54.03;;;;;;;3.15;nan;94844.91;6121813;23;20106;-79
2021/12/26 01:19:11;;;;;;;113.28;48.25;;;;;;;3.34;nan;94835.00;6121993;23;20335;-79
2021/12/26 01:21:37;;;;;;;122.85;51.08;;;;;;;2.59;nan;94741.75;6123118;23;20017;-79
2021/12/26 01:24:06;;;;;;;116.63;52.15;;;;;;;2.52;nan;94746.31;6097248;23;20037;-79
2021/12/26 01:26:33;;;;;;;112.22;50.05;;;;;;;3.12;nan;94831.47;6121693;23;20010;-80
2021/12/26 01:28:59;;;;;;;126.50;51.08;;;;;;;2.68;nan;94757.88;6122011;23;20018;-79
2021/12/26 01:31:25;;;;;;;120.60;50.22;;;;;;;2.74;nan;94766.63;6098214;23;20431;-80
2021/12/26 01:33:55;;;;;;;116.50;51.92;;;;;;;3.25;nan;94825.94;6097641;23;20079;-79
2021/12/26 01:36:21;;;;;;;114.32;47.95;;;;;;;2.80;nan;94797.91;6097639;23;20010;-80
2021/12/26 01:38:47;;;;;;;114.78;47.55;;;;;;;2.12;nan;94707.09;6072831;23;20013;-79
2021/12/26 01:41:17;;;;;;;114.47;48.65;;;;;;;2.45;nan;94713.47;6096924;23;20547;-80
2021/12/26 01:43:46;;;;;;;107.80;46.75;;;;;;;2.66;nan;94794.78;6097431;23;20017;-80
2021/12/26 01:46:12;;;;;;;105.25;47.63;;;;;;;2.74;nan;94817.19;6124888;23;20013;-80
2021/12/26 01:48:37;;;;;;;92.30;44.55;;;;;;;2.57;nan;94779.66;6124334;23;20410;-80
2021/12/26 01:51:03;;;;;;;92.15;43.42;;;;;;;1.91;nan;94690.19;6084414;23;20006;-80
2021/12/26 01:53:40;;;;;;;88.50;38.95;;;;;;;2.74;nan;94796.22;1172416;23;10021796;-80
2021/12/26 01:56:12;;;;;;;86.97;38.58;;;;;;;2.35;nan;94744.69;5678350;23;10001269;-80
2021/12/26 01:58:38;;;;;;;82.15;37.15;;;;;;;2.63;nan;94770.88;6098503;23;20016;-80
2021/12/26 02:01:07;;;;;;;82.03;37.33;;;;;;;2.92;nan;94784.75;6098790;23;20076;-79
2021/12/26 02:03:33;;;;;;;83.70;37.22;;;;;;;2.88;nan;94788.88;6124579;23;20010;-80
2021/12/26 02:05:58;;;;;;;77.35;34.42;;;;;;;2.09;nan;94649.22;6097479;23;20072;-80
2021/12/26 02:08:24;;;;;;;71.55;34.75;;;;;;;2.44;nan;94698.81;6098537;23;20010;-80
2021/12/26 02:10:50;;;;;;;72.95;34.13;;;;;;;2.96;nan;94797.16;6125222;23;20425;-80
2021/12/26 02:13:15;;;;;;;65.53;30.88;;;;;;;2.92;nan;94769.03;6098691;23;20009;-80
2021/12/26 02:15:41;;;;;;;64.30;29.75;;;;;;;2.48;nan;94719.03;6126153;23;20021;-80
2021/12/26 02:18:08;;;;;;;66.70;31.20;;;;;;;3.06;nan;94799.13;6127216;23;20340;-81
2021/12/26 02:21:06;;;;;;;64.95;30.25;;;;;;;2.53;nan;94713.09;6123406;23;20002;-79
2021/12/26 02:28:26;;;;;;;71.90;29.33;;;;;;;3.21;nan;94791.53;6126360;23;20014;-80
2021/12/26 02:30:54;;;;;;;68.97;29.63;;;;;;;3.30;nan;94794.56;6099971;23;20006;-79
2021/12/26 02:33:20;;;;;;;58.00;30.17;;;;;;;2.71;nan;94763.44;6123522;23;20006;-80
2021/12/26 02:35:48;;;;;;;61.17;28.50;;;;;;;2.27;nan;94685.66;6125702;23;20109;-80
2021/12/26 02:38:14;;;;;;;57.15;28.80;;;;;;;2.16;nan;94671.59;6125906;23;20117;-80
2021/12/26 02:40:42;;;;;;;65.78;30.02;;;;;;;2.61;nan;94718.75;6099187;23;20010;-79
2021/12/26 02:43:09;;;;;;;69.00;29.92;;;;;;;2.78;nan;94781.63;6125721;23;20270;-79
2021/12/26 02:45:36;;;;;;;65.47;28.60;;;;;;;2.55;nan;94700.56;6125900;23;20009;-80
2021/12/26 02:48:02;;;;;;;61.22;28.85;;;;;;;2.86;nan;94743.78;6098846;23;20025;-80
2021/12/26 02:50:30;;;;;;;59.10;27.77;;;;;;;3.11;nan;94794.00;6124578;23;20010;-80
2021/12/26 02:52:58;;;;;;;61.47;27.52;;;;;;;3.20;nan;94807.53;6125350;23;20024;-80
2021/12/26 02:55:24;;;;;;;54.10;26.63;;;;;;;2.36;nan;94663.34;6127807;23;20025;-79
2021/12/26 02:57:54;;;;;;;61.45;27.90;;;;;;;3.19;nan;94783.13;6101710;23;20025;-80
2021/12/26 03:00:24;;;;;;;56.30;25.40;;;;;;;3.24;nan;94795.53;6128097;23;20365;-79
2021/12/26 03:02:52;;;;;;;59.20;25.92;;;;;;;2.80;nan;94716.72;6128079;23;20017;-79
2021/12/26 03:05:19;;;;;;;54.25;24.33;;;;;;;1.81;nan;94521.91;6126844;23;20017;-80
2021/12/26 03:07:46;;;;;;;53.30;25.70;;;;;;;2.30;nan;94640.72;6129479;23;20442;-80
2021/12/26 03:10:21;;;;;;;50.30;24.73;;;;;;;2.58;nan;94650.38;6101869;23;20403;-80
2021/12/26 03:12:59;;;;;;;51.08;23.83;;;;;;;2.87;nan;94687.75;6102352;23;20133;-80
2021/12/26 03:15:27;;;;;;;47.03;23.65;;;;;;;3.32;nan;94759.22;6125850;23;20019;-81
2021/12/26 03:17:53;;;;;;;52.95;23.90;;;;;;;2.85;nan;94700.28;6102989;23;20010;-80
2021/12/26 03:20:22;;;;;;;42.22;22.05;;;;;;;3.38;nan;94781.88;6127908;23;20097;-81
2021/12/26 03:22:48;;;;;;;41.90;22.05;;;;;;;3.27;nan;94730.34;6125208;23;20030;-79
2021/12/26 03:25:18;;;;;;;50.25;23.05;;;;;;;2.59;nan;94686.00;6126105;23;20101;-79
2021/12/26 03:27:44;;;;;;;42.28;21.67;;;;;;;2.43;nan;94663.19;6127975;23;20005;-80
2021/12/26 03:30:13;;;;;;;50.03;22.73;;;;;;;2.29;nan;94649.56;6126049;23;20065;-80
2021/12/26 03:32:39;;;;;;;42.40;20.67;;;;;;;2.41;nan;94700.06;6100558;23;20009;-81
2021/12/26 03:35:05;;;;;;;44.25;21.75;;;;;;;2.98;nan;94736.66;6125381;23;20370;-80
2021/12/26 03:37:31;;;;;;;39.53;20.40;;;;;;;3.15;nan;94781.22;6126582;23;20017;-79
2021/12/26 03:39:56;;;;;;;37.55;19.65;;;;;;;1.35;nan;94549.78;6101295;23;20030;-80
2021/12/26 03:42:22;;;;;;;38.50;18.67;;;;;;;2.01;nan;94678.34;6128063;23;20006;-79
2021/12/26 03:44:49;;;;;;;40.65;18.45;;;;;;;2.97;nan;94801.38;6100793;23;20085;-79
2021/12/26 03:47:14;;;;;;;38.20;18.92;;;;;;;3.07;nan;94812.00;6100902;23;20091;-79
2021/12/26 03:49:40;;;;;;;36.25;17.50;;;;;;;2.88;nan;94776.56;6127067;23;20315;-79
2021/12/26 03:52:06;;;;;;;38.40;19.00;;;;;;;2.97;nan;94775.19;6100105;23;20037;-80
2021/12/26 03:54:32;;;;;;;32.03;18.13;;;;;;;2.73;nan;94760.59;6126793;23;20057;-79
2021/12/26 03:56:58;;;;;;;38.55;18.60;;;;;;;2.76;nan;94772.41;6125286;23;20014;-79
2021/12/26 03:59:24;;;;;;;45.92;20.83;;;;;;;2.51;nan;94695.03;6126237;23;20041;-81
2021/12/26 04:01:49;;;;;;;42.03;20.15;;;;;;;2.78;nan;94739.72;6126276;23;20504;-80
2021/12/26 04:04:15;;;;;;;40.67;18.35;;;;;;;2.50;nan;94748.41;6125160;23;20014;-79
2021/12/26 04:06:40;;;;;;;37.22;19.30;;;;;;;2.51;nan;94730.88;6099282;23;20001;-79
2021/12/26 04:09:08;;;;;;;49.92;22.85;;;;;;;2.88;nan;94810.63;6099279;23;20456;-80
2021/12/26 04:11:35;;;;;;;78.85;35.30;;;;;;;2.08;nan;94702.56;6126137;23;20090;-80
2021/12/26 04:14:01;;;;;;;73.63;33.53;;;;;;;2.25;nan;94722.53;6100044;23;20466;-79
2021/12/26 04:16:26;;;;;;;75.13;35.58;;;;;;;2.51;nan;94731.66;6100232;23;20017;-79
2021/12/26 04:18:52;;;;;;;74.50;32.67;;;;;;;2.02;nan;94682.56;6098684;23;20013;-80
2021/12/26 04:21:17;;;;;;;73.25;33.05;;;;;;;2.56;nan;94744.03;6099624;23;20291;-79
2021/12/26 04:23:43;;;;;;;75.13;34.63;;;;;;;3.01;nan;94785.97;6125676;23;20016;-80
2021/12/26 04:26:08;;;;;;;73.97;34.45;;;;;;;2.93;nan;94781.09;6124241;23;20024;-79
2021/12/26 04:28:34;;;;;;;75.40;34.45;;;;;;;3.14;nan;94829.41;6127254;23;20033;-79
2021/12/26 04:30:59;;;;;;;71.78;34.00;;;;;;;2.90;nan;94778.97;6126534;23;20006;-80
2021/12/26 04:33:25;;;;;;;74.53;35.00;;;;;;;2.18;nan;94660.91;6100461;23;20014;-79
2021/12/26 04:35:50;;;;;;;77.45;35.50;;;;;;;2.98;nan;94828.34;6126705;23;20033;-79
2021/12/26 04:38:16;;;;;;;73.65;34.05;;;;;;;2.86;nan;94790.94;6124936;23;20021;-80
2021/12/26 04:40:41;;;;;;;65.45;30.85;;;;;;;2.00;nan;94680.19;6100768;23;20010;-79
2021/12/26 04:43:07;;;;;;;62.08;28.83;;;;;;;2.72;nan;94801.69;6125941;23;20017;-79
2021/12/26 04:45:32;;;;;;;53.78;24.88;;;;;;;2.08;nan;94685.03;6100672;23;20459;-79
2021/12/26 04:48:01;;;;;;;49.70;25.15;;;;;;;2.70;nan;94793.28;6127501;23;20013;-79
2021/12/26 04:50:28;;;;;;;65.80;26.17;;;;;;;2.73;nan;94839.16;6125683;23;20043;-79
2021/12/26 04:52:53;;;;;;;44.40;23.73;;;;;;;2.74;nan;94790.19;6127078;23;20060;-79
2021/12/26 04:55:23;;;;;;;46.38;22.60;;;;;;;2.97;nan;94796.13;6126827;23;20434;-79
2021/12/26 04:57:48;;;;;;;54.78;25.70;;;;;;;2.52;nan;94719.34;6124848;23;20291;-79
2021/12/26 05:00:19;;;;;;;58.67;27.80;;;;;;;3.04;nan;94801.22;6126673;23;20072;-79
2021/12/26 05:02:46;;;;;;;62.58;28.85;;;;;;;2.80;nan;94756.00;6125434;23;20014;-79
2021/12/26 05:05:13;;;;;;;52.17;25.92;;;;;;;3.38;nan;94836.91;6124732;23;20480;-80
2021/12/26 05:07:41;;;;;;;55.33;27.15;;;;;;;2.71;nan;94745.13;6126764;23;20002;-80
2021/12/26 05:10:08;;;;;;;50.70;25.50;;;;;;;3.19;nan;94806.72;6125763;23;20016;-79
2021/12/26 05:12:36;;;;;;;58.38;28.27;;;;;;;2.88;nan;94783.63;6127217;23;20005;-80
2021/12/26 05:15:03;;;;;;;53.67;25.67;;;;;;;3.06;nan;94810.41;6125730;23;20022;-79
2021/12/26 05:17:30;;;;;;;62.70;28.27;;;;;;;2.13;nan;94684.38;6100498;23;20485;-80
2021/12/26 05:19:56;;;;;;;61.78;29.23;;;;;;;2.15;nan;94690.13;6101335;23;20457;-80
2021/12/26 05:22:21;;;;;;;63.95;30.23;;;;;;;2.81;nan;94789.03;6127721;23;20044;-79
2021/12/26 05:24:48;;;;;;;71.20;30.48;;;;;;;2.08;nan;94668.56;6104785;23;20014;-79
2021/12/26 05:27:14;;;;;;;67.22;31.45;;;;;;;2.16;nan;94663.75;6127505;23;20016;-80
2021/12/26 05:29:40;;;;;;;63.47;31.50;;;;;;;3.34;nan;94850.75;6125518;23;20006;-80
2021/12/26 05:32:06;;;;;;;65.53;29.95;;;;;;;3.43;nan;94836.22;6099731;23;20236;-80
2021/12/26 05:34:31;;;;;;;66.10;31.55;;;;;;;2.50;nan;94721.44;6124746;23;20014;-79
2021/12/26 05:36:57;;;;;;;74.40;32.55;;;;;;;3.35;nan;94829.53;6076684;23;20331;-79
2021/12/26 05:39:22;;;;;;;67.25;32.97;;;;;;;3.14;nan;94795.34;6099806;23;20021;-79
2021/12/26 05:41:48;;;;;;;75.28;32.88;;;;;;;3.11;nan;94788.75;6124713;23;20056;-79
2021/12/26 05:44:13;;;;;;;73.43;33.95;;;;;;;3.41;nan;94843.53;6123727;23;20006;-79
2021/12/26 05:46:39;;;;;;;72.07;33.28;;;;;;;3.07;nan;94740.47;6099726;23;20010;-80
2021/12/26 05:49:05;;;;;;;73.07;36.53;;;;;;;3.39;nan;94806.25;6101052;23;20006;-80
2021/12/26 05:51:31;;;;;;;73.32;36.28;;;;;;;2.28;nan;94646.19;6124783;23;20085;-80
2021/12/26 05:53:57;;;;;;;84.55;36.35;;;;;;;0.71;nan;94418.47;6101869;23;20041;-80
2021/12/26 05:56:23;;;;;;;77.70;37.25;;;;;;;2.09;nan;94634.31;6125118;23;20021;-79
2021/12/26 05:58:48;;;;;;;73.63;35.15;;;;;;;2.46;nan;94734.16;6128351;23;20013;-80
2021/12/26 06:01:14;;;;;;;70.88;33.40;;;;;;;2.44;nan;94685.72;6101733;23;20013;-80
2021/12/26 06:03:40;;;;;;;71.25;32.60;;;;;;;2.16;nan;94628.94;6100184;23;20065;-80
2021/12/26 06:06:06;;;;;;;67.68;32.17;;;;;;;1.85;nan;94594.38;6127407;23;20017;-79
2021/12/26 06:08:31;;;;;;;61.17;32.17;;;;;;;3.29;nan;94809.50;6127057;23;20006;-80
2021/12/26 06:10:57;;;;;;;60.63;29.63;;;;;;;2.56;nan;94682.00;6101137;23;20014;-79
2021/12/26 06:13:22;;;;;;;60.50;29.00;;;;;;;2.81;nan;94762.03;6124903;23;20020;-79
2021/12/26 06:15:48;;;;;;;66.28;29.88;;;;;;;2.71;nan;94711.06;6124125;23;20041;-79
2021/12/26 06:18:13;;;;;;;63.75;31.35;;;;;;;2.83;nan;94725.91;6099984;23;20300;-79
2021/12/26 06:20:39;;;;;;;63.80;32.83;;;;;;;3.40;nan;94771.94;6098833;23;20006;-79
2021/12/26 06:23:05;;;;;;;65.88;32.53;;;;;;;2.79;nan;94699.41;6124478;23;20029;-79
2021/12/26 06:25:31;;;;;;;66.43;31.65;;;;;;;3.14;nan;94800.56;6123215;23;20088;-80
2021/12/26 06:27:57;;;;;;;62.08;30.58;;;;;;;3.30;nan;94805.06;6099829;23;20002;-81
2021/12/26 06:30:22;;;;;;;57.72;29.17;;;;;;;2.51;nan;94681.94;6103225;23;20092;-80
2021/12/26 06:32:48;;;;;;;50.10;27.30;;;;;;;1.97;nan;94604.03;6128856;23;20049;-79
2021/12/26 06:35:13;;;;;;;48.05;22.65;;;;;;;2.88;nan;94796.75;6126172;23;20017;-79
2021/12/26 06:37:40;;;;;;;46.63;23.48;;;;;;;2.82;nan;94795.84;6124041;23;20033;-79
2021/12/26 06:40:08;;;;;;;38.50;21.00;;;;;;;2.49;nan;94718.00;6123777;23;20005;-80
2021/12/26 06:42:40;;;;;;;36.75;19.90;;;;;;;3.07;nan;94785.81;6124164;23;20089;-80
2021/12/26 06:45:06;;;;;;;28.67;15.73;;;;;;;2.13;nan;94645.91;6099894;23;20030;-79
2021/12/26 06:47:32;;;;;;;36.40;16.15;;;;;;;2.17;nan;94662.72;6123890;23;20200;-79
2021/12/26 06:49:57;;;;;;;34.30;15.48;;;;;;;3.09;nan;94775.91;6099760;23;20393;-80
2021/12/26 06:52:23;;;;;;;25.92;13.48;;;;;;;2.75;nan;94713.22;6099915;23;20006;-80
2021/12/26 06:54:48;;;;;;;27.25;14.02;;;;;;;2.65;nan;94737.41;6123626;23;20009;-79
2021/12/26 06:57:14;;;;;;;27.17;14.52;;;;;;;2.91;nan;94797.03;6099538;23;20025;-79
2021/12/26 06:59:40;;;;;;;28.45;13.65;;;;;;;2.80;nan;94790.06;6124316;23;20409;-79
2021/12/26 07:02:05;;;;;;;32.67;15.15;;;;;;;1.18;nan;94517.56;6098839;23;20021;-80
2021/12/26 07:04:31;;;;;;;28.88;14.07;;;;;;;2.63;nan;94758.56;6122255;23;20028;-80
2021/12/26 07:06:56;;;;;;;29.15;14.60;;;;;;;3.13;nan;94822.59;6096546;23;20052;-79
2021/12/26 07:09:22;;;;;;;35.05;15.55;;;;;;;3.20;nan;94810.94;6098536;23;20509;-80
2021/12/26 07:11:47;;;;;;;33.78;18.15;;;;;;;3.17;nan;94813.22;6096480;23;20016;-79
2021/12/26 07:14:13;;;;;;;32.40;16.50;;;;;;;2.35;nan;94692.34;6124064;23;20514;-79
2021/12/26 07:16:39;;;;;;;32.15;16.15;;;;;;;3.12;nan;94808.69;6123766;23;20640;-80
2021/12/26 07:19:04;;;;;;;31.55;16.65;;;;;;;3.12;nan;94769.41;6123410;23;20014;-80
2021/12/26 07:21:30;;;;;;;36.90;16.88;;;;;;;3.36;nan;94798.84;6124884;23;20066;-80
2021/12/26 07:23:55;;;;;;;37.08;17.17;;;;;;;3.44;nan;94830.72;6126319;23;20018;-80
2021/12/26 07:26:23;;;;;;;36.45;17.98;;;;;;;3.15;nan;94808.22;6099666;23;20014;-79
2021/12/26 07:28:49;;;;;;;30.05;16.27;;;;;;;3.44;nan;94859.56;6098458;23;20402;-79
2021/12/26 07:31:15;;;;;;;39.50;18.63;;;;;;;2.76;nan;94722.66;6126511;23;20006;-80
2021/12/26 07:33:40;;;;;;;36.25;18.40;;;;;;;2.99;nan;94740.88;6125142;23;20033;-80
2021/12/26 07:36:06;;;;;;;36.65;16.58;;;;;;;3.07;nan;94743.88;6100107;23;20014;-80
2021/12/26 07:38:31;;;;;;;39.22;17.63;;;;;;;3.72;nan;94855.31;6126942;23;20028;-80
2021/12/26 07:40:57;;;;;;;38.25;20.17;;;;;;;3.36;nan;94794.41;6099655;23;20390;-80
2021/12/26 07:43:22;;;;;;;39.88;18.52;;;;;;;3.31;nan;94760.25;6125847;23;20017;-80
2021/12/26 07:45:48;;;;;;;63.00;19.73;;;;;;;3.37;nan;94789.97;6100321;23;20006;-79
2021/12/26 07:48:13;;;;;;;34.63;17.75;;;;;;;2.59;nan;94646.72;6126701;23;20054;-80
2021/12/26 07:50:39;;;;;;;35.00;16.52;;;;;;;1.98;nan;94582.06;6100483;23;20006;-79
2021/12/26 07:53:11;;;;;;;30.55;15.95;;;;;;;3.35;nan;94750.09;6099479;23;20377;-80
2021/12/26 07:55:37;;;;;;;33.42;16.42;;;;;;;3.09;nan;94741.03;6129636;23;20211;-79
2021/12/26 07:58:03;;;;;;;32.33;18.27;;;;;;;3.79;nan;94845.44;6125034;23;20014;-79
2021/12/26 08:00:29;;;;;;;35.10;19.65;;;;;;;3.50;nan;94792.28;6124813;23;20005;-80
2021/12/26 08:02:56;;;;;;;35.08;18.85;;;;;;;2.39;nan;94584.34;6097978;23;20488;-80
2021/12/26 08:05:22;;;;;;;33.15;17.92;;;;;;;4.09;nan;94840.66;6125634;23;20012;-79
2021/12/26 08:07:47;;;;;;;35.80;19.23;;;;;;;3.98;nan;94817.13;6125143;23;20006;-80
2021/12/26 08:10:13;;;;;;;34.60;19.42;;;;;;;3.60;nan;94754.91;6127892;23;20068;-80
2021/12/26 08:12:39;;;;;;;37.72;19.70;;;;;;;3.91;nan;94793.66;6124539;23;20001;-80
2021/12/26 08:15:05;;;;;;;35.17;19.08;;;;;;;3.75;nan;94774.28;6127932;23;20381;-80
2021/12/26 08:17:31;;;;;;;43.78;19.95;;;;;;;2.71;nan;94602.94;6124365;23;20444;-80
2021/12/26 08:19:58;;;;;;;44.15;19.10;;;;;;;3.68;nan;94721.22;6077007;23;20101;-80
2021/12/26 08:22:24;;;;;;;39.90;20.15;;;;;;;4.18;nan;94802.47;6124288;23;20038;-80
2021/12/26 08:24:51;;;;;;;33.50;18.55;;;;;;;3.38;nan;94670.97;6124912;23;20005;-80
2021/12/26 08:27:16;;;;;;;32.38;17.70;;;;;;;3.78;nan;94733.69;6126754;23;20002;-80
2021/12/26 08:29:42;;;;;;;39.28;18.75;;;;;;;4.32;nan;94797.66;6127781;23;20080;-80
2021/12/26 08:32:12;;;;;;;42.50;18.27;;;;;;;4.52;nan;94791.84;6100691;23;20343;-80
2021/12/26 08:34:37;;;;;;;29.23;17.30;;;;;;;4.34;nan;94771.16;6126262;23;20489;-80
2021/12/26 08:37:04;;;;;;;35.00;18.02;;;;;;;3.94;nan;94693.50;6125727;23;20085;-80
2021/12/26 08:39:33;;;;;;;32.17;18.83;;;;;;;4.67;nan;94797.28;6100123;23;20009;-80
2021/12/26 08:41:59;;;;;;;35.65;18.15;;;;;;;4.36;nan;94735.72;6127420;23;20020;-81
2021/12/26 08:44:25;;;;;;;36.60;17.38;;;;;;;4.42;nan;94744.47;6125540;23;20418;-80
2021/12/26 08:46:50;;;;;;;33.72;16.92;;;;;;;4.15;nan;94720.78;6101746;23;20005;-78
2021/12/26 08:49:16;;;;;;;35.95;16.55;;;;;;;4.98;nan;94832.56;6099982;23;20010;-80
2021/12/26 08:51:42;;;;;;;34.05;16.58;;;;;;;4.16;nan;94667.25;6126809;23;20010;-79
2021/12/26 08:54:08;;;;;;;35.60;18.35;;;;;;;4.87;nan;94783.59;6124158;23;20471;-79
2021/12/26 08:56:34;;;;;;;45.38;23.00;;;;;;;4.63;nan;94726.06;6126235;23;20117;-80
2021/12/26 08:58:59;;;;;;;41.38;22.75;;;;;;;4.54;nan;94732.78;6126501;23;20473;-80
2021/12/26 09:01:25;;;;;;;45.30;21.98;;;;;;;4.49;nan;94719.63;6126670;23;20081;-80
2021/12/26 09:03:50;;;;;;;68.03;29.48;;;;;;;4.71;nan;94751.09;6100781;23;20101;-79
2021/12/26 09:06:16;;;;;;;70.45;33.25;;;;;;;5.02;nan;94795.03;6099775;23;20077;-80
2021/12/26 09:08:41;;;;;;;58.28;31.08;;;;;;;5.09;nan;94818.50;6101437;23;20389;-80
2021/12/26 09:11:07;;;;;;;71.55;32.17;;;;;;;4.44;nan;94721.38;6126203;23;20010;-80
2021/12/26 09:13:35;;;;;;;63.05;31.83;;;;;;;5.01;nan;94779.50;6101254;23;20016;-80
2021/12/26 09:16:01;;;;;;;61.42;31.30;;;;;;;4.72;nan;94744.00;6126430;23;20490;-80
2021/12/26 09:18:27;;;;;;;61.40;31.05;;;;;;;5.08;nan;94771.44;6127802;23;20017;-80
2021/12/26 09:20:52;;;;;;;57.10;30.38;;;;;;;5.05;nan;94786.66;6126834;23;20017;-80
2021/12/26 09:23:18;;;;;;;63.33;30.27;;;;;;;5.07;nan;94754.06;6128119;23;20037;-81
2021/12/26 09:25:44;;;;;;;59.35;29.25;;;;;;;5.37;nan;94799.81;6127098;23;20489;-81
2021/12/26 09:28:09;;;;;;;53.15;27.02;;;;;;;4.73;nan;94704.34;6103769;23;20268;-80
2021/12/26 09:30:36;;;;;;;59.97;29.08;;;;;;;5.53;nan;94795.50;6125272;23;20228;-81
2021/12/26 09:33:02;;;;;;;52.63;26.98;;;;;;;5.51;nan;94805.47;6124492;23;20018;-80
2021/12/26 09:35:28;;;;;;;56.63;25.13;;;;;;;4.66;nan;94673.03;6126763;23;20707;-80
2021/12/26 09:37:53;;;;;;;46.53;23.73;;;;;;;5.61;nan;94792.41;6099938;23;20044;-80
2021/12/26 09:40:19;;;;;;;50.33;25.85;;;;;;;5.25;nan;94722.16;6126222;23;20028;-80
2021/12/26 09:42:46;;;;;;;43.70;23.13;;;;;;;5.00;nan;94667.56;6100154;23;20006;-80
2021/12/26 09:45:12;;;;;;;49.47;24.52;;;;;;;5.86;nan;94783.91;6126570;23;20006;-80
2021/12/26 09:47:40;;;;;;;43.42;24.05;;;;;;;5.73;nan;94752.75;6124435;23;20431;-80
2021/12/26 09:50:08;;;;;;;45.63;22.88;;;;;;;5.62;nan;94717.69;6098828;23;20005;-80
2021/12/26 09:52:34;;;;;;;48.75;25.13;;;;;;;6.12;nan;94788.28;6099316;23;20009;-80
2021/12/26 09:55:00;;;;;;;42.13;22.38;;;;;;;5.75;nan;94711.19;6125983;23;20260;-79
2021/12/26 09:57:28;;;;;;;42.95;21.63;;;;;;;5.68;nan;94700.91;6123915;23;20040;-80
2021/12/26 09:59:54;;;;;;;42.53;21.38;;;;;;;6.11;nan;94749.06;6124942;23;20079;-80
2021/12/26 10:02:20;;;;;;;43.67;21.50;;;;;;;5.71;nan;94699.59;6099132;23;20013;-80
2021/12/26 10:04:48;;;;;;;44.78;21.17;;;;;;;6.11;nan;94736.69;6124421;23;20017;-79
2021/12/26 10:07:19;;;;;;;39.33;18.70;;;;;;;6.58;nan;94809.59;6125734;23;20058;-79
2021/12/26 10:09:47;;;;;;;38.80;17.88;;;;;;;6.29;nan;94740.72;6123041;23;20033;-80
2021/12/26 10:12:14;;;;;;;32.40;18.23;;;;;;;6.22;nan;94713.84;6099129;23;20072;-78
2021/12/26 10:14:43;;;;;;;30.25;14.18;;;;;;;5.72;nan;94682.78;6125849;23;20005;-79
2021/12/26 10:17:12;;;;;;;26.38;14.25;;;;;;;5.94;nan;94703.72;6125260;23;20014;-79
2021/12/26 10:19:40;;;;;;;29.08;16.20;;;;;;;6.86;nan;94803.13;6125515;23;20450;-79
2021/12/26 10:22:08;;;;;;;32.67;16.92;;;;;;;6.95;nan;94807.63;6123853;23;20428;-80
2021/12/26 10:24:39;;;;;;;32.35;16.88;;;;;;;6.59;nan;94761.91;6123834;23;20018;-79
2021/12/26 10:27:06;;;;;;;;;;;;;;;7.19;nan;94818.50;6100398;23;20002;-80
2021/12/26 10:29:39;;;;;;;27.95;14.10;;;;;;;7.03;nan;94774.69;6125972;23;20244;-80
2021/12/26 10:32:17;;;;;;;25.55;13.85;;;;;;;7.60;nan;94821.22;6125276;23;20302;-80
2021/12/26 10:34:53;;;;;;;26.70;14.35;;;;;;;7.33;nan;94758.91;6099154;23;20036;-80
2021/12/26 10:37:33;;;;;;;21.58;12.45;;;;;;;7.85;nan;94823.06;6123828;23;20002;-80
2021/12/26 10:40:03;;;;;;;21.95;12.02;;;;;;;7.64;nan;94794.00;6099450;23;20013;-79
2021/12/26 10:42:32;;;;;;;21.50;11.43;;;;;;;7.79;nan;94795.06;6126429;23;20065;-80
2021/12/26 10:45:07;;;;;;;20.10;12.05;;;;;;;8.10;nan;94813.25;6126899;23;20092;-80
2021/12/26 10:47:36;;;;;;;25.85;13.00;;;;;;;7.97;nan;94795.31;6100508;23;20108;-80
2021/12/26 10:50:18;;;;;;;21.33;12.13;;;;;;;7.83;nan;94769.72;6100161;23;20545;-80
2021/12/26 10:52:59;;;;;;;26.90;12.48;;;;;;;7.39;nan;94683.22;6100172;23;20033;-79
2021/12/26 10:55:33;;;;;;;26.98;14.13;;;;;;;7.89;nan;94803.78;6124456;23;20072;-79
2021/12/26 10:58:05;;;;;;;28.40;14.60;;;;;;;5.48;nan;94406.22;6100459;23;20391;-80
2021/12/26 11:00:55;;;;;;;26.02;14.77;;;;;;;8.08;nan;94788.97;6125703;23;20009;-80
2021/12/26 11:03:28;;;;;;;24.73;14.52;;;;;;;7.32;nan;94665.00;6089104;23;20014;-81
2021/12/26 11:06:00;;;;;;;32.88;15.57;;;;;;;8.32;nan;94796.34;6126171;23;20006;-80
2021/12/26 11:08:42;;;;;;;33.47;17.70;;;;;;;8.09;nan;94758.06;6126771;23;20395;-80
2021/12/26 11:11:18;;;;;;;31.08;17.38;;;;;;;7.74;nan;94721.97;6100275;23;20414;-80
2021/12/26 11:13:44;;;;;;;40.53;20.50;;;;;;;8.24;nan;94792.38;6124273;23;20014;-80
2021/12/26 11:16:12;;;;;;;35.22;18.38;;;;;;;8.08;nan;94743.28;6128900;23;20061;-81
2021/12/26 11:18:38;;;;;;;33.63;17.52;;;;;;;8.67;nan;94796.25;6103778;23;20010;-80
2021/12/26 11:21:06;;;;;;;31.85;18.08;;;;;;;8.06;nan;94692.59;6102087;23;20052;-80
2021/12/26 11:23:35;;;;;;;34.08;18.02;;;;;;;8.17;nan;94680.13;6102927;23;20018;-81
2021/12/26 11:26:08;;;;;;;37.28;20.05;;;;;;;8.61;nan;94784.13;6128972;23;20005;-81
2021/12/26 11:28:37;;;;;;;40.15;20.45;;;;;;;8.80;nan;94792.22;6128937;23;20001;-80
2021/12/26 11:31:09;;;;;;;41.22;22.02;;;;;;;8.77;nan;94761.81;6100114;23;20109;-79
2021/12/26 11:33:36;;;;;;;38.90;20.90;;;;;;;9.03;nan;94781.00;6130027;23;20032;-79
2021/12/26 11:36:05;;;;;;;39.75;21.05;;;;;;;8.92;nan;94750.41;6129134;23;20009;-79
2021/12/26 11:38:30;;;;;;;41.85;21.42;;;;;;;8.54;nan;94706.19;6102137;23;20021;-79
2021/12/26 11:41:00;;;;;;;42.38;21.95;;;;;;;9.29;nan;94805.47;6101944;23;20014;-80
2021/12/26 11:43:32;;;;;;;40.03;23.52;;;;;;;9.23;nan;94803.94;6103636;23;20014;-80
2021/12/26 11:46:16;;;;;;;47.80;23.40;;;;;;;9.29;nan;94781.66;6128208;23;20065;-80